createdAt,value
2023-01-15T00:00:32.449Z,20.96
2023-01-15T00:03:05.008Z,20.97
2023-01-15T00:05:38.094Z,20.99
2023-01-15T00:08:08.883Z,20.99
2023-01-15T00:10:51.192Z,21.00
2023-01-15T00:13:21.208Z,21.01
2023-01-15T00:15:51.494Z,21.02
2023-01-15T00:18:22.860Z,21.03
2023-01-15T00:21:00.684Z,21.03
2023-01-15T00:23:48.829Z,21.00
2023-01-15T00:26:52.376Z,20.91
2023-01-15T00:29:24.893Z,20.85
2023-01-15T00:32:00.448Z,20.80
2023-01-15T00:34:33.229Z,20.74
2023-01-15T00:37:03.335Z,20.74
2023-01-15T00:39:33.991Z,20.72
2023-01-15T00:42:04.856Z,20.68
2023-01-15T00:44:35.098Z,20.67
2023-01-15T00:47:05.047Z,20.69
2023-01-15T00:49:37.587Z,20.72
2023-01-15T00:52:08.208Z,20.71
2023-01-15T00:54:39.069Z,20.72
2023-01-15T00:57:11.818Z,20.71
2023-01-15T00:59:41.957Z,20.68
2023-01-15T01:02:12.039Z,20.66
2023-01-15T01:04:44.605Z,20.64
2023-01-15T01:07:14.920Z,20.63
2023-01-15T01:09:44.957Z,20.62
2023-01-15T01:12:16.058Z,20.63
2023-01-15T01:14:46.438Z,20.66
2023-01-15T01:17:16.254Z,20.68
2023-01-15T01:19:48.774Z,20.73
2023-01-15T01:22:19.366Z,20.76
2023-01-15T01:24:49.377Z,20.78
2023-01-15T01:27:19.978Z,20.78
2023-01-15T01:29:50.639Z,20.76
2023-01-15T01:32:21.029Z,20.73
2023-01-15T01:34:53.543Z,20.69
2023-01-15T01:37:23.602Z,20.65
2023-01-15T01:39:56.108Z,20.63
2023-01-15T01:42:26.675Z,20.59
2023-01-15T01:45:25.943Z,20.53
2023-01-15T01:48:00.451Z,20.51
2023-01-15T01:50:36.600Z,20.51
2023-01-15T01:53:11.840Z,20.53
2023-01-15T01:55:43.087Z,20.57
2023-01-15T01:58:16.410Z,20.60
2023-01-15T02:00:51.574Z,20.63
2023-01-15T02:03:28.290Z,20.64
2023-01-15T02:06:05.437Z,20.65
2023-01-15T02:08:35.739Z,20.66
2023-01-15T02:11:06.776Z,20.67
2023-01-15T02:13:42.824Z,20.68
2023-01-15T02:16:24.257Z,20.69
2023-01-15T02:19:03.946Z,20.69
2023-01-15T02:21:56.050Z,20.69
2023-01-15T02:24:40.113Z,20.67
2023-01-15T02:27:30.084Z,20.67
2023-01-15T02:30:08.715Z,20.66
2023-01-15T02:32:46.702Z,20.64
2023-01-15T02:35:24.980Z,20.62
2023-01-15T02:38:02.510Z,20.61
2023-01-15T02:40:35.329Z,20.59
2023-01-15T02:43:09.549Z,20.56
2023-01-15T02:45:45.655Z,20.54
2023-01-15T02:48:20.576Z,20.52
2023-01-15T02:50:57.482Z,20.51
2023-01-15T02:53:32.763Z,20.48
2023-01-15T02:56:11.528Z,20.46
2023-01-15T02:58:46.787Z,20.44
2023-01-15T03:01:22.445Z,20.41
2023-01-15T03:04:02.485Z,20.42
2023-01-15T03:06:43.634Z,20.39
2023-01-15T03:09:14.927Z,20.36
2023-01-15T03:11:52.213Z,20.36
2023-01-15T03:14:33.545Z,20.32
2023-01-15T03:17:15.122Z,20.29
2023-01-15T03:19:53.942Z,20.26
2023-01-15T03:22:30.749Z,20.24
2023-01-15T03:25:15.812Z,20.21
2023-01-15T03:27:45.703Z,20.21
2023-01-15T03:30:22.858Z,20.21
2023-01-15T03:32:53.765Z,20.18
2023-01-15T03:35:49.583Z,20.16
2023-01-15T03:38:24.119Z,20.13
2023-01-15T03:41:11.223Z,20.10
2023-01-15T03:43:54.111Z,20.08
2023-01-15T03:46:45.342Z,20.06
2023-01-15T03:49:28.527Z,20.05
2023-01-15T03:52:07.483Z,20.03
2023-01-15T03:54:52.529Z,20.01
2023-01-15T03:57:35.058Z,20.01
2023-01-15T04:00:15.392Z,19.99
2023-01-15T04:02:50.518Z,19.98
2023-01-15T04:05:21.485Z,19.95
2023-01-15T04:07:54.068Z,19.94
2023-01-15T04:10:24.565Z,19.92
2023-01-15T04:12:55.151Z,19.90
2023-01-15T04:15:25.681Z,19.88
2023-01-15T04:17:58.176Z,19.85
2023-01-15T04:20:28.276Z,19.83
2023-01-15T04:22:58.901Z,19.80
2023-01-15T04:25:29.618Z,19.79
2023-01-15T04:28:00.452Z,19.79
2023-01-15T04:30:30.236Z,19.77
2023-01-15T04:33:03.223Z,19.77
2023-01-15T04:35:33.925Z,19.76
2023-01-15T04:38:04.131Z,19.79
2023-01-15T04:40:51.104Z,19.77
2023-01-15T04:43:38.125Z,19.76
2023-01-15T04:46:08.793Z,19.75
2023-01-15T04:48:41.821Z,19.75
2023-01-15T04:51:12.325Z,19.73
2023-01-15T04:53:42.730Z,19.74
2023-01-15T04:56:13.333Z,19.74
2023-01-15T04:58:43.346Z,19.73
2023-01-15T05:01:16.012Z,19.75
2023-01-15T05:03:48.802Z,19.73
2023-01-15T05:06:19.323Z,19.75
2023-01-15T05:08:49.927Z,19.74
2023-01-15T05:11:20.686Z,19.76
2023-01-15T05:13:51.265Z,19.79
2023-01-15T05:16:25.143Z,19.81
2023-01-15T05:19:01.142Z,19.82
2023-01-15T05:21:34.385Z,19.87
2023-01-15T05:24:09.198Z,19.92
2023-01-15T05:26:39.731Z,20.00
2023-01-15T05:29:09.804Z,20.05
2023-01-15T05:31:40.662Z,20.11
2023-01-15T05:34:14.171Z,20.17
2023-01-15T05:36:44.396Z,20.20
2023-01-15T05:39:16.085Z,20.23
2023-01-15T05:41:53.292Z,20.24
2023-01-15T05:44:26.685Z,20.25
2023-01-15T05:47:00.698Z,20.26
2023-01-15T05:49:33.316Z,20.29
2023-01-15T05:52:05.390Z,20.31
2023-01-15T05:54:37.543Z,20.33
2023-01-15T05:57:08.265Z,20.35
2023-01-15T05:59:38.336Z,20.36
2023-01-15T06:02:08.567Z,20.38
2023-01-15T06:04:40.537Z,20.40
2023-01-15T06:07:11.830Z,20.43
2023-01-15T06:09:41.625Z,20.46
2023-01-15T06:12:12.263Z,20.51
2023-01-15T06:14:42.840Z,20.60
2023-01-15T06:17:15.594Z,20.72
2023-01-15T06:19:47.562Z,20.92
2023-01-15T06:22:18.811Z,21.15
2023-01-15T06:24:49.475Z,21.42
2023-01-15T06:27:19.393Z,21.70
2023-01-15T06:29:49.621Z,21.98
2023-01-15T06:32:20.551Z,22.25
2023-01-15T06:34:53.435Z,22.56
2023-01-15T06:37:23.975Z,22.85
2023-01-15T06:39:53.873Z,23.13
2023-01-15T06:42:49.602Z,23.41
2023-01-15T06:45:39.839Z,23.67
2023-01-15T06:48:11.326Z,23.95
2023-01-15T06:50:43.594Z,24.17
2023-01-15T06:53:14.549Z,24.38
2023-01-15T06:55:44.271Z,24.57
2023-01-15T06:58:15.035Z,24.78
2023-01-15T07:00:47.348Z,25.00
2023-01-15T07:03:19.026Z,25.18
2023-01-15T07:05:52.669Z,25.39
2023-01-15T07:08:25.574Z,25.57
2023-01-15T07:10:55.941Z,25.77
2023-01-15T07:13:25.868Z,25.99
2023-01-15T07:15:56.385Z,26.21
2023-01-15T07:18:26.677Z,26.39
2023-01-15T07:21:01.025Z,26.58
2023-01-15T07:23:31.569Z,26.75
2023-01-15T07:26:02.166Z,26.89
2023-01-15T07:28:32.843Z,27.02
2023-01-15T07:31:03.386Z,27.16
2023-01-15T07:33:34.363Z,27.27
2023-01-15T07:36:09.419Z,27.37
2023-01-15T07:38:40.684Z,27.49
2023-01-15T07:41:27.779Z,27.60
2023-01-15T07:44:14.973Z,27.72
2023-01-15T07:47:02.300Z,27.85
2023-01-15T07:49:50.877Z,28.00
2023-01-15T07:52:25.295Z,28.20
2023-01-15T07:54:55.872Z,28.38
2023-01-15T07:57:26.146Z,28.56
2023-01-15T07:59:56.757Z,28.74
2023-01-15T08:02:27.776Z,28.91
2023-01-15T08:04:58.365Z,29.06
2023-01-15T08:07:30.991Z,29.17
2023-01-15T08:10:01.543Z,29.21
2023-01-15T08:13:00.000Z,29.21
2023-01-15T08:15:35.153Z,29.21
2023-01-15T08:18:05.634Z,29.27
2023-01-15T08:20:38.325Z,29.40
2023-01-15T08:23:11.067Z,29.55
2023-01-15T08:25:41.600Z,29.71
2023-01-15T08:28:14.971Z,29.84
2023-01-15T08:30:45.069Z,29.92
2023-01-15T08:33:15.655Z,30.01
2023-01-15T08:35:46.182Z,30.06
2023-01-15T08:38:20.911Z,30.15
2023-01-15T08:41:14.799Z,30.18
2023-01-15T08:43:46.290Z,30.12
2023-01-15T08:46:16.851Z,30.03
2023-01-15T08:48:48.724Z,29.92
2023-01-15T08:51:19.874Z,29.84
2023-01-15T08:53:52.258Z,29.78
2023-01-15T08:56:25.799Z,29.73
2023-01-15T08:58:56.636Z,29.65
2023-01-15T09:01:27.725Z,29.54
2023-01-15T09:03:58.551Z,29.41
2023-01-15T09:06:28.845Z,29.24
2023-01-15T09:09:02.199Z,29.06
2023-01-15T09:11:32.808Z,28.88
2023-01-15T09:14:03.434Z,28.73
2023-01-15T09:16:33.916Z,28.61
2023-01-15T09:19:04.419Z,28.52
2023-01-15T09:21:35.269Z,28.41
2023-01-15T09:24:09.132Z,28.29
2023-01-15T09:26:41.933Z,28.17
2023-01-15T09:29:12.933Z,28.08
2023-01-15T09:31:43.320Z,27.98
2023-01-15T09:34:14.015Z,27.90
2023-01-15T09:36:46.912Z,27.83
2023-01-15T09:39:19.144Z,27.78
2023-01-15T09:42:15.482Z,27.72
2023-01-15T09:45:13.363Z,27.62
2023-01-15T09:48:01.071Z,27.49
2023-01-15T09:50:50.077Z,27.34
2023-01-15T09:53:56.963Z,27.22
2023-01-15T09:56:33.982Z,27.13
2023-01-15T09:59:21.255Z,27.03
2023-01-15T10:01:53.660Z,26.96
2023-01-15T10:04:39.730Z,26.88
2023-01-15T10:07:25.696Z,26.81
2023-01-15T10:10:04.627Z,26.71
2023-01-15T10:12:44.948Z,26.63
2023-01-15T10:15:36.147Z,26.57
2023-01-15T10:18:09.419Z,26.50
2023-01-15T10:21:26.481Z,26.44
2023-01-15T10:24:08.094Z,26.37
2023-01-15T10:26:44.000Z,26.33
2023-01-15T10:29:29.199Z,26.30
2023-01-15T10:32:06.156Z,26.25
2023-01-15T10:35:13.740Z,26.20
2023-01-15T10:37:52.409Z,26.16
2023-01-15T10:40:44.222Z,26.11
2023-01-15T10:43:25.958Z,26.07
2023-01-15T10:46:04.433Z,26.02
2023-01-15T10:48:42.266Z,25.98
2023-01-15T10:51:22.837Z,25.94
2023-01-15T10:53:58.238Z,25.89
2023-01-15T10:56:39.923Z,25.87
2023-01-15T10:59:22.758Z,25.81
2023-01-15T11:01:58.276Z,25.77
2023-01-15T11:04:32.533Z,25.73
2023-01-15T11:07:03.758Z,25.69
2023-01-15T11:09:36.589Z,25.64
2023-01-15T11:12:39.789Z,25.61
2023-01-15T11:15:42.854Z,25.57
2023-01-15T11:18:45.148Z,25.54
2023-01-15T11:21:20.258Z,25.50
2023-01-15T11:23:52.002Z,25.50
2023-01-15T11:26:27.421Z,25.49
2023-01-15T11:29:00.877Z,25.47
2023-01-15T11:31:39.991Z,25.47
2023-01-15T11:34:24.772Z,25.46
2023-01-15T11:37:05.881Z,25.44
2023-01-15T11:39:36.358Z,25.44
2023-01-15T11:42:25.421Z,25.44
2023-01-15T11:45:15.406Z,25.44
2023-01-15T11:48:12.367Z,25.44
2023-01-15T11:50:56.341Z,25.44
2023-01-15T11:53:38.030Z,25.43
2023-01-15T11:56:17.643Z,25.42
2023-01-15T11:59:06.045Z,25.41
2023-01-15T12:02:00.200Z,25.36
2023-01-15T12:04:40.695Z,25.35
2023-01-15T12:07:19.049Z,25.34
2023-01-15T12:10:43.468Z,25.34
2023-01-15T12:13:34.479Z,25.33
2023-01-15T12:16:14.998Z,25.32
2023-01-15T12:19:02.368Z,25.32
2023-01-15T12:22:21.815Z,25.32
2023-01-15T12:25:31.720Z,25.28
2023-01-15T12:28:13.901Z,25.26
2023-01-15T12:31:01.888Z,25.24
2023-01-15T12:33:52.389Z,25.23
2023-01-15T12:36:34.030Z,25.23
2023-01-15T12:39:13.806Z,25.23
2023-01-15T12:45:05.006Z,25.21
2023-01-15T12:47:46.740Z,25.20
2023-01-15T12:50:54.250Z,25.19
2023-01-15T12:53:38.902Z,25.16
2023-01-15T12:56:23.429Z,25.16
2023-01-15T12:59:09.743Z,25.13
2023-01-15T13:01:58.807Z,25.09
2023-01-15T13:04:45.196Z,25.06
2023-01-15T13:07:27.677Z,25.04
2023-01-15T13:10:09.565Z,25.02
2023-01-15T13:12:57.454Z,24.99
2023-01-15T13:15:41.619Z,24.97
2023-01-15T13:18:28.365Z,24.95
2023-01-15T13:21:04.544Z,24.92
2023-01-15T13:24:04.478Z,24.92
2023-01-15T13:27:03.923Z,24.88
2023-01-15T13:29:52.081Z,24.85
2023-01-15T13:32:34.664Z,24.84
2023-01-15T13:35:15.409Z,24.84
2023-01-15T13:37:56.065Z,24.81
2023-01-15T13:40:34.291Z,24.79
2023-01-15T13:43:35.163Z,24.75
2023-01-15T13:46:12.943Z,24.73
2023-01-15T13:48:52.477Z,24.71
2023-01-15T13:51:40.424Z,24.70
2023-01-15T13:54:19.485Z,24.68
2023-01-15T13:56:51.467Z,24.66
2023-01-15T13:59:46.685Z,24.67
2023-01-15T14:02:35.844Z,24.66
2023-01-15T14:05:32.994Z,24.62
2023-01-15T14:08:23.600Z,24.59
2023-01-15T14:10:58.583Z,24.57
2023-01-15T14:14:25.513Z,24.53
2023-01-15T14:17:21.102Z,24.48
2023-01-15T14:20:37.467Z,24.44
2023-01-15T14:23:36.394Z,24.42
2023-01-15T14:26:21.200Z,24.41
2023-01-15T14:29:22.003Z,24.40
2023-01-15T14:32:13.875Z,24.38
2023-01-15T14:34:58.892Z,24.36
2023-01-15T14:37:40.685Z,24.35
2023-01-15T14:40:36.857Z,24.32
2023-01-15T14:43:28.055Z,24.29
2023-01-15T14:46:13.037Z,24.28
2023-01-15T14:48:47.575Z,24.25
2023-01-15T14:51:23.286Z,24.23
2023-01-15T14:54:02.240Z,24.21
2023-01-15T14:56:39.982Z,24.20
2023-01-15T14:59:26.143Z,24.19
2023-01-15T15:02:05.093Z,24.18
2023-01-15T15:04:43.012Z,24.16
2023-01-15T15:07:18.163Z,24.15
2023-01-15T15:09:55.409Z,24.13
2023-01-15T15:12:41.009Z,24.08
2023-01-15T15:15:20.583Z,24.06
2023-01-15T15:18:06.535Z,24.02
2023-01-15T15:20:58.561Z,24.00
2023-01-15T15:23:40.239Z,23.97
2023-01-15T15:27:07.428Z,23.94
2023-01-15T15:29:43.879Z,23.90
2023-01-15T15:32:21.408Z,23.88
2023-01-15T15:35:02.305Z,23.85
2023-01-15T15:37:35.265Z,23.84
2023-01-15T15:40:26.741Z,23.82
2023-01-15T15:43:32.985Z,23.79
2023-01-15T15:46:42.611Z,23.74
2023-01-15T15:49:14.639Z,23.71
2023-01-15T15:52:02.878Z,23.70
2023-01-15T15:54:48.474Z,23.67
2023-01-15T15:57:24.265Z,23.66
2023-01-15T16:00:09.747Z,23.65
2023-01-15T16:02:45.983Z,23.63
2023-01-15T16:05:31.913Z,23.62
2023-01-15T16:08:23.156Z,23.61
2023-01-15T16:11:01.862Z,23.61
2023-01-15T16:13:39.328Z,23.58
2023-01-15T16:16:13.705Z,23.56
2023-01-15T16:18:53.137Z,23.56
2023-01-15T16:21:33.088Z,23.55
2023-01-15T16:24:30.316Z,23.54
2023-01-15T16:27:08.323Z,23.52
2023-01-15T16:29:50.863Z,23.51
2023-01-15T16:32:32.280Z,23.50
2023-01-15T16:35:23.378Z,23.47
2023-01-15T16:38:00.679Z,23.45
2023-01-15T16:40:37.755Z,23.43
2023-01-15T16:43:17.973Z,23.42
2023-01-15T16:46:05.879Z,23.38
2023-01-15T16:48:48.175Z,23.35
2023-01-15T16:51:44.497Z,23.32
2023-01-15T16:54:51.725Z,23.28
2023-01-15T16:57:37.570Z,23.26
2023-01-15T17:00:31.173Z,23.24
2023-01-15T17:03:03.217Z,23.23
2023-01-15T17:05:37.412Z,23.23
2023-01-15T17:08:27.565Z,23.23
2023-01-15T17:11:02.229Z,23.22
2023-01-15T17:13:42.639Z,23.22
2023-01-15T17:16:23.726Z,23.20
2023-01-15T17:18:58.889Z,23.19
2023-01-15T17:21:32.240Z,23.19
2023-01-15T17:24:17.227Z,23.18
2023-01-15T17:26:49.247Z,23.15
2023-01-15T17:29:20.724Z,23.13
2023-01-15T17:31:52.071Z,23.13
2023-01-15T17:34:25.736Z,23.12
2023-01-15T17:37:05.768Z,23.11
2023-01-15T17:39:38.953Z,23.08
2023-01-15T17:42:17.890Z,23.06
2023-01-15T17:44:59.091Z,23.04
2023-01-15T17:47:30.583Z,23.02
2023-01-15T17:50:04.922Z,23.00
2023-01-15T17:52:41.463Z,23.00
2023-01-15T17:55:34.450Z,22.98
2023-01-15T17:58:30.154Z,22.96
2023-01-15T18:01:23.990Z,22.95
2023-01-15T18:04:15.861Z,22.94
2023-01-15T18:06:56.139Z,22.93
2023-01-15T18:09:42.137Z,22.92
2023-01-15T18:12:17.025Z,22.92
2023-01-15T18:14:50.657Z,22.92
2023-01-15T18:17:24.362Z,22.92
2023-01-15T18:20:02.602Z,22.91
2023-01-15T18:22:34.326Z,22.90
2023-01-15T18:25:07.874Z,22.91
2023-01-15T18:27:45.436Z,22.91
2023-01-15T18:30:19.743Z,22.91
2023-01-15T18:33:02.631Z,22.91
2023-01-15T18:35:36.840Z,22.89
2023-01-15T18:38:09.140Z,22.88
2023-01-15T18:40:43.088Z,22.85
2023-01-15T18:43:37.307Z,22.82
2023-01-15T18:46:31.055Z,22.78
2023-01-15T18:49:03.261Z,22.75
2023-01-15T18:51:35.162Z,22.74
2023-01-15T18:54:06.824Z,22.73
2023-01-15T18:56:48.410Z,22.71
2023-01-15T18:59:22.501Z,22.70
2023-01-15T19:02:07.370Z,22.70
2023-01-15T19:04:42.957Z,22.68
2023-01-15T19:07:19.674Z,22.66
2023-01-15T19:09:59.756Z,22.66
2023-01-15T19:12:31.638Z,22.63
2023-01-15T19:15:26.634Z,22.62
2023-01-15T19:18:20.295Z,22.62
2023-01-15T19:20:52.427Z,22.60
2023-01-15T19:23:26.124Z,22.61
2023-01-15T19:25:59.261Z,22.60
2023-01-15T19:28:39.884Z,22.59
2023-01-15T19:31:30.227Z,22.59
2023-01-15T19:34:32.141Z,22.56
2023-01-15T19:37:01.672Z,22.53
2023-01-15T19:39:34.761Z,22.53
2023-01-15T19:42:24.996Z,22.50
2023-01-15T19:48:39.679Z,22.44
2023-01-15T19:51:11.479Z,22.41
2023-01-15T19:53:43.915Z,22.41
2023-01-15T19:56:18.037Z,22.39
2023-01-15T19:58:50.532Z,22.39
2023-01-15T20:01:24.160Z,22.37
2023-01-15T20:04:01.115Z,22.35
2023-01-15T20:06:47.341Z,22.33
2023-01-15T20:09:18.141Z,22.30
2023-01-15T20:12:01.869Z,22.31
2023-01-15T20:14:36.134Z,22.30
2023-01-15T20:17:08.522Z,22.30
2023-01-15T20:19:50.596Z,22.31
2023-01-15T20:22:28.496Z,22.30
2023-01-15T20:25:01.989Z,22.29
2023-01-15T20:27:43.165Z,22.28
2023-01-15T20:30:23.333Z,22.26
2023-01-15T20:33:00.689Z,22.25
2023-01-15T20:35:43.851Z,22.24
2023-01-15T20:38:17.956Z,22.23
2023-01-15T20:40:50.761Z,22.23
2023-01-15T20:43:44.028Z,22.23
2023-01-15T20:46:16.202Z,22.23
2023-01-15T20:49:04.086Z,22.21
2023-01-15T20:51:36.150Z,22.22
2023-01-15T20:54:08.823Z,22.23
2023-01-15T20:56:46.074Z,22.23
2023-01-15T20:59:18.126Z,22.22
2023-01-15T21:01:54.883Z,22.21
2023-01-15T21:04:26.337Z,22.21
2023-01-15T21:07:03.624Z,22.20
2023-01-15T21:09:37.376Z,22.20
2023-01-15T21:12:22.095Z,22.20
2023-01-15T21:14:52.837Z,22.18
2023-01-15T21:17:26.391Z,22.17
2023-01-15T21:20:03.919Z,22.16
2023-01-15T21:22:37.710Z,22.14
2023-01-15T21:25:16.021Z,22.14
2023-01-15T21:27:55.137Z,22.13
2023-01-15T21:30:35.099Z,22.12
2023-01-15T21:33:08.864Z,22.09
2023-01-15T21:35:44.616Z,22.08
2023-01-15T21:38:23.313Z,22.08
2023-01-15T21:40:58.264Z,22.07
2023-01-15T21:43:45.874Z,22.05
2023-01-15T21:46:16.528Z,22.03
2023-01-15T21:48:47.074Z,22.02
2023-01-15T21:51:17.768Z,22.00
2023-01-15T21:53:54.164Z,21.99
2023-01-15T21:56:26.520Z,21.96
2023-01-15T21:58:59.274Z,21.93
2023-01-15T22:01:31.624Z,21.92
2023-01-15T22:04:07.139Z,21.89
2023-01-15T22:07:25.941Z,21.87
2023-01-15T22:10:03.624Z,21.84
2023-01-15T22:12:38.965Z,21.84
2023-01-15T22:15:16.571Z,21.84
2023-01-15T22:17:48.931Z,21.84
2023-01-15T22:20:20.115Z,21.84
2023-01-15T22:22:52.252Z,21.86
2023-01-15T22:25:25.071Z,21.85
2023-01-15T22:27:55.150Z,21.84
2023-01-15T22:30:25.922Z,21.84
2023-01-15T22:33:01.713Z,21.83
2023-01-15T22:35:32.907Z,21.81
2023-01-15T22:38:03.136Z,21.79
2023-01-15T22:40:39.287Z,21.79
2023-01-15T22:43:09.874Z,21.78
2023-01-15T22:45:41.050Z,21.78
2023-01-15T22:48:15.703Z,21.78
2023-01-15T22:50:46.866Z,21.79
2023-01-15T22:53:19.078Z,21.80
2023-01-15T22:56:02.182Z,21.81
2023-01-15T22:58:33.072Z,21.82
2023-01-15T23:01:04.596Z,21.82
2023-01-15T23:03:38.864Z,21.82
2023-01-15T23:06:16.228Z,21.83
2023-01-15T23:08:48.723Z,21.84
2023-01-15T23:11:21.585Z,21.83
2023-01-15T23:13:52.056Z,21.82
2023-01-15T23:16:23.363Z,21.82
2023-01-15T23:18:53.572Z,21.81
2023-01-15T23:21:28.523Z,21.83
2023-01-15T23:24:01.141Z,21.82
2023-01-15T23:26:36.167Z,21.81
2023-01-15T23:29:07.136Z,21.81
2023-01-15T23:31:38.283Z,21.81
2023-01-15T23:34:10.893Z,21.80
2023-01-15T23:36:41.524Z,21.79
2023-01-15T23:39:11.713Z,21.78
2023-01-15T23:42:00.398Z,21.76
2023-01-15T23:44:47.807Z,21.72
2023-01-15T23:47:18.563Z,21.69
2023-01-15T23:49:49.661Z,21.66
2023-01-15T23:52:20.518Z,21.66
2023-01-15T23:54:51.175Z,21.65
2023-01-15T23:57:23.686Z,21.64
2023-01-15T23:59:55.027Z,21.62
